Time;durP1;ratioP1;P1;durP2;ratioP2;P2;SDS_P1;SDS_P2;PMS_P1;PMS_P2;Temp;Humidity;BMP_temperature;BMP_pressure;BME280_temperature;BME280_humidity;BME280_pressure;Samples;Min_cycle;Max_cycle;Signal;HPM_P1;HPM_P2
2021/10/09 00:01:43;;;;;;;35.03;24.83;;;10.70;99.90;;;;;;5010564;28;20046;-51
2021/10/09 00:04:09;;;;;;;37.28;25.20;;;10.80;99.90;;;;;;5010068;28;20096;-51
2021/10/09 00:06:35;;;;;;;36.45;25.33;;;10.80;99.90;;;;;;5007336;28;20038;-53
2021/10/09 00:09:02;;;;;;;40.22;26.38;;;10.70;99.90;;;;;;5010130;28;20434;-54
2021/10/09 00:11:37;;;;;;;37.25;26.50;;;10.70;99.90;;;;;;4998229;28;20379;-54
2021/10/09 00:14:04;;;;;;;35.85;26.60;;;10.60;99.90;;;;;;5008257;28;20076;-51
2021/10/09 00:16:30;;;;;;;38.35;27.90;;;10.60;99.90;;;;;;5009339;28;20133;-51
2021/10/09 00:18:56;;;;;;;41.95;28.48;;;10.60;99.90;;;;;;5000744;28;20124;-50
2021/10/09 00:21:21;;;;;;;41.88;25.92;;;10.50;99.90;;;;;;5014886;28;20087;-50
2021/10/09 00:23:48;;;;;;;39.03;26.85;;;10.60;99.90;;;;;;5007627;28;20041;-51
2021/10/09 00:26:14;;;;;;;36.67;26.45;;;10.60;99.90;;;;;;4999109;28;20438;-49
2021/10/09 00:28:40;;;;;;;38.70;26.98;;;10.60;99.90;;;;;;5012831;28;20417;-51
2021/10/09 00:31:05;;;;;;;39.53;27.08;;;10.60;99.90;;;;;;5009496;28;20037;-51
2021/10/09 00:33:31;;;;;;;39.78;28.00;;;10.60;99.90;;;;;;5004793;28;20048;-50
2021/10/09 00:35:56;;;;;;;40.35;27.98;;;10.50;99.90;;;;;;5015015;28;20038;-51
2021/10/09 00:38:22;;;;;;;43.67;28.00;;;10.60;99.90;;;;;;5019933;28;20041;-50
2021/10/09 00:40:48;;;;;;;42.38;28.67;;;10.60;99.90;;;;;;5010344;28;20038;-50
2021/10/09 00:43:15;;;;;;;40.35;27.73;;;10.50;99.90;;;;;;5051191;22;20301;-52
2021/10/09 00:45:56;;;;;;;39.78;27.20;;;10.50;99.90;;;;;;5020671;28;20144;-51
2021/10/09 00:48:23;;;;;;;37.78;27.17;;;10.60;99.90;;;;;;5035780;28;20037;-52
2021/10/09 00:50:50;;;;;;;45.75;31.20;;;10.60;99.90;;;;;;5025241;28;20400;-53
2021/10/09 00:53:21;;;;;;;44.22;28.08;;;10.70;99.90;;;;;;5042115;28;20080;-49
2021/10/09 00:55:48;;;;;;;42.38;29.10;;;10.60;99.90;;;;;;5031371;28;20037;-52
2021/10/09 00:58:15;;;;;;;49.03;29.73;;;10.60;99.90;;;;;;5030800;28;20060;-51
2021/10/09 01:00:42;;;;;;;49.58;30.38;;;10.60;99.90;;;;;;5030475;28;20037;-53
2021/10/09 01:03:09;;;;;;;44.53;30.27;;;10.60;99.90;;;;;;5030922;28;20480;-53
2021/10/09 01:05:36;;;;;;;44.20;30.17;;;10.60;99.90;;;;;;5030283;28;20041;-54
2021/10/09 01:08:03;;;;;;;49.42;30.42;;;10.50;99.90;;;;;;5025196;28;20038;-51
2021/10/09 01:10:29;;;;;;;46.97;31.15;;;10.60;99.90;;;;;;5027375;28;20033;-53
2021/10/09 01:12:57;;;;;;;45.50;30.50;;;10.60;99.90;;;;;;5028423;28;20143;-53
2021/10/09 01:15:29;;;;;;;50.70;31.05;;;10.60;99.90;;;;;;5031964;28;20044;-53
2021/10/09 01:17:55;;;;;;;48.23;32.03;;;10.60;99.90;;;;;;4993815;28;20045;-50
2021/10/09 01:20:21;;;;;;;45.72;31.05;;;10.60;99.90;;;;;;5027686;28;20059;-52
2021/10/09 01:22:47;;;;;;;45.75;31.17;;;10.60;99.90;;;;;;5030093;28;20404;-53
2021/10/09 01:25:13;;;;;;;50.83;32.63;;;10.60;99.90;;;;;;5000945;28;20037;-49
2021/10/09 01:27:40;;;;;;;48.60;32.15;;;10.70;99.90;;;;;;5025398;28;20413;-50
2021/10/09 01:30:08;;;;;;;51.88;32.22;;;10.60;99.90;;;;;;5030016;28;20366;-51
2021/10/09 01:32:34;;;;;;;52.58;33.17;;;10.60;99.90;;;;;;5031197;28;20057;-53
2021/10/09 01:35:04;;;;;;;48.00;30.85;;;10.60;99.90;;;;;;5028539;28;20080;-52
2021/10/09 01:37:41;;;;;;;46.28;31.25;;;10.60;99.90;;;;;;5026327;28;20076;-52
2021/10/09 01:40:07;;;;;;;47.65;30.85;;;10.80;99.90;;;;;;5029297;28;20037;-50
2021/10/09 01:42:35;;;;;;;48.75;30.63;;;10.80;99.90;;;;;;5029749;28;20065;-50
2021/10/09 01:45:01;;;;;;;51.00;31.92;;;10.80;99.90;;;;;;5030445;28;20320;-49
2021/10/09 01:47:26;;;;;;;49.28;31.52;;;10.80;99.90;;;;;;5031211;28;20440;-51
2021/10/09 01:49:52;;;;;;;50.50;31.58;;;10.80;99.90;;;;;;5030659;28;20124;-50
2021/10/09 01:52:17;;;;;;;49.72;31.00;;;10.80;99.90;;;;;;5029732;28;20045;-51
2021/10/09 01:54:43;;;;;;;45.30;30.05;;;10.80;99.90;;;;;;5023892;28;20574;-50
2021/10/09 01:57:10;;;;;;;53.22;33.50;;;10.80;99.90;;;;;;5033489;28;20045;-52
2021/10/09 01:59:41;;;;;;;50.83;31.20;;;10.80;99.90;;;;;;5024614;28;20067;-52
2021/10/09 02:02:06;;;;;;;47.15;30.35;;;10.70;99.90;;;;;;5032528;28;20119;-53
2021/10/09 02:04:33;;;;;;;50.63;33.17;;;10.70;99.90;;;;;;5014449;28;20129;-53
2021/10/09 02:07:00;;;;;;;53.92;33.58;;;10.70;99.90;;;;;;5002034;28;20458;-53
2021/10/09 02:09:29;;;;;;;55.15;32.80;;;10.60;99.90;;;;;;5008047;28;20136;-53
2021/10/09 02:11:59;;;;;;;52.67;31.70;;;10.60;99.90;;;;;;5034185;28;20549;-54
2021/10/09 02:27:47;;;;;;;45.78;28.55;;;10.50;99.90;;;;;;4954146;28;20139;-53
2021/10/09 02:30:16;;;;;;;49.78;30.80;;;10.50;99.90;;;;;;4930477;28;20066;-53
2021/10/09 02:32:41;;;;;;;54.72;32.63;;;10.60;99.90;;;;;;4985140;28;20061;-55
2021/10/09 02:35:08;;;;;;;50.35;32.95;;;10.60;99.90;;;;;;5034636;28;20081;-53
2021/10/09 02:37:33;;;;;;;52.72;32.67;;;10.60;99.90;;;;;;5023259;28;20084;-54
2021/10/09 02:39:59;;;;;;;54.08;32.85;;;10.50;99.90;;;;;;5033754;28;20049;-52
2021/10/09 02:42:24;;;;;;;54.33;33.35;;;10.50;99.90;;;;;;5016399;28;20048;-54
2021/10/09 02:44:50;;;;;;;58.80;33.20;;;10.40;99.90;;;;;;5031518;28;20040;-54
2021/10/09 02:47:16;;;;;;;54.10;33.30;;;10.50;99.90;;;;;;5033511;28;20033;-53
2021/10/09 02:49:41;;;;;;;58.47;32.65;;;10.50;99.90;;;;;;5023897;28;20068;-49
2021/10/09 02:52:11;;;;;;;56.20;31.23;;;10.60;99.90;;;;;;5034777;28;20520;-49
2021/10/09 02:54:36;;;;;;;65.85;33.22;;;10.60;99.90;;;;;;5033058;28;20029;-50
2021/10/09 02:57:02;;;;;;;61.10;35.88;;;10.50;99.90;;;;;;5033519;28;20033;-52
2021/10/09 02:59:29;;;;;;;67.18;36.05;;;10.50;99.90;;;;;;5023897;28;20057;-52
2021/10/09 03:01:54;;;;;;;71.13;36.58;;;10.50;99.90;;;;;;5034782;28;20060;-52
2021/10/09 03:04:20;;;;;;;68.65;37.97;;;10.50;99.90;;;;;;5033772;28;20034;-51
2021/10/09 03:06:45;;;;;;;68.57;35.60;;;10.40;99.90;;;;;;5011917;28;20048;-53
2021/10/09 03:09:11;;;;;;;72.82;37.95;;;10.40;99.90;;;;;;5034317;28;20061;-53
2021/10/09 03:11:37;;;;;;;74.32;37.78;;;10.50;99.90;;;;;;5021915;28;20040;-53
2021/10/09 03:14:03;;;;;;;77.57;40.28;;;10.40;99.90;;;;;;5016010;28;20041;-51
2021/10/09 03:16:28;;;;;;;69.15;36.35;;;10.40;99.90;;;;;;5034852;28;20045;-54
2021/10/09 03:18:54;;;;;;;83.60;38.97;;;10.40;99.90;;;;;;5031178;28;20041;-51
2021/10/09 03:21:20;;;;;;;74.43;38.65;;;10.40;99.90;;;;;;5032478;28;20084;-54
2021/10/09 03:23:45;;;;;;;82.75;37.65;;;10.40;99.90;;;;;;5021395;28;20076;-51
2021/10/09 03:26:11;;;;;;;81.05;38.70;;;10.40;99.90;;;;;;5017985;28;20080;-52
2021/10/09 03:28:38;;;;;;;74.43;39.17;;;10.40;99.90;;;;;;5028871;28;20049;-54
2021/10/09 03:31:05;;;;;;;78.57;40.05;;;10.40;99.90;;;;;;5028493;28;20076;-54
2021/10/09 03:33:32;;;;;;;90.82;41.22;;;10.30;99.90;;;;;;5002967;28;20046;-52
2021/10/09 03:35:57;;;;;;;77.10;38.35;;;10.30;99.90;;;;;;5031056;28;20037;-54
2021/10/09 03:38:26;;;;;;;82.30;41.35;;;10.30;99.90;;;;;;5028590;28;20029;-54
2021/10/09 03:40:58;;;;;;;78.75;38.25;;;10.30;99.90;;;;;;5001225;28;20045;-53
2021/10/09 03:43:26;;;;;;;82.45;39.88;;;10.40;99.90;;;;;;5031052;28;20045;-51
2021/10/09 03:46:09;;;;;;;85.30;40.80;;;10.30;99.90;;;;;;5034529;28;20073;-51
2021/10/09 03:53:35;;;;;;;94.15;39.72;;;10.30;99.90;;;;;;5032203;28;20045;-54
2021/10/09 03:56:13;;;;;;;76.68;36.53;;;10.30;99.90;;;;;;5025434;28;20034;-54
2021/10/09 03:58:42;;;;;;;85.13;41.47;;;10.30;99.90;;;;;;5030594;28;20127;-53
2021/10/09 04:01:07;;;;;;;92.72;42.17;;;10.30;99.90;;;;;;5034110;28;20141;-54
2021/10/09 04:03:33;;;;;;;109.90;42.45;;;10.30;99.90;;;;;;5027977;28;20048;-53
2021/10/09 04:05:59;;;;;;;102.65;41.08;;;10.20;99.90;;;;;;5032540;28;20101;-51
2021/10/09 04:08:25;;;;;;;103.72;43.08;;;10.30;99.90;;;;;;5030126;28;20110;-53
2021/10/09 04:10:51;;;;;;;91.13;40.17;;;10.30;99.90;;;;;;5014304;28;20057;-54
2021/10/09 04:13:16;;;;;;;81.75;38.30;;;10.30;99.90;;;;;;5016991;28;20072;-52
2021/10/09 04:15:42;;;;;;;87.63;41.63;;;10.40;99.90;;;;;;5030631;28;20041;-52
2021/10/09 04:18:07;;;;;;;103.55;43.35;;;10.30;99.90;;;;;;5034084;28;20102;-51
2021/10/09 04:20:34;;;;;;;98.95;43.45;;;10.30;99.90;;;;;;5014186;28;20041;-53
2021/10/09 04:22:59;;;;;;;108.53;43.22;;;10.20;99.90;;;;;;4997038;28;20045;-53
2021/10/09 04:25:25;;;;;;;120.40;44.88;;;10.10;99.90;;;;;;5031665;28;20167;-52
2021/10/09 04:27:50;;;;;;;102.93;41.88;;;10.10;99.90;;;;;;5031418;28;20030;-54
2021/10/09 04:30:17;;;;;;;101.15;39.10;;;10.20;99.90;;;;;;5031699;28;20029;-55
2021/10/09 04:32:42;;;;;;;116.50;37.88;;;10.20;99.90;;;;;;5013704;28;20120;-54
2021/10/09 04:35:08;;;;;;;114.57;42.90;;;10.20;99.90;;;;;;5027843;28;20117;-55
2021/10/09 04:37:35;;;;;;;104.30;42.08;;;10.20;99.90;;;;;;5019655;28;20037;-50
2021/10/09 04:40:02;;;;;;;106.72;42.58;;;10.10;99.90;;;;;;5032150;28;20045;-55
2021/10/09 04:42:28;;;;;;;98.15;41.92;;;10.10;99.90;;;;;;5030173;28;21304;-54
2021/10/09 04:44:55;;;;;;;111.18;43.35;;;10.10;99.90;;;;;;5029614;28;20041;-54
2021/10/09 04:47:23;;;;;;;108.20;43.85;;;10.10;99.90;;;;;;5030585;28;20432;-51
2021/10/09 04:49:48;;;;;;;94.57;41.47;;;10.10;99.90;;;;;;5012554;28;20037;-55
2021/10/09 04:52:14;;;;;;;89.95;42.65;;;10.10;99.90;;;;;;5032022;28;20040;-54
2021/10/09 04:54:39;;;;;;;107.25;44.92;;;10.00;99.90;;;;;;5032338;28;20041;-54
2021/10/09 04:57:05;;;;;;;109.75;44.38;;;10.10;99.90;;;;;;5012513;28;20467;-50
2021/10/09 04:59:31;;;;;;;105.50;46.03;;;10.10;99.90;;;;;;5031239;28;20518;-53
2021/10/09 05:01:56;;;;;;;103.57;43.80;;;10.00;99.90;;;;;;5015441;28;20524;-53
2021/10/09 05:04:23;;;;;;;99.32;42.55;;;10.10;99.90;;;;;;5025891;28;20033;-54
2021/10/09 05:06:52;;;;;;;78.43;38.13;;;10.10;99.90;;;;;;5018151;28;20029;-51
2021/10/09 05:09:19;;;;;;;86.40;41.22;;;10.10;99.90;;;;;;5032915;28;20034;-55
2021/10/09 05:11:45;;;;;;;102.15;43.72;;;10.10;99.90;;;;;;5002396;28;20086;-51
2021/10/09 05:14:10;;;;;;;87.25;42.53;;;10.10;99.90;;;;;;5027231;28;20033;-54
2021/10/09 05:16:36;;;;;;;98.82;44.63;;;10.10;99.90;;;;;;5028904;28;20494;-54
2021/10/09 05:19:02;;;;;;;82.07;38.70;;;10.10;99.90;;;;;;5028676;28;20041;-54
2021/10/09 05:21:30;;;;;;;95.22;42.15;;;10.10;99.90;;;;;;5033746;28;20049;-52
2021/10/09 05:23:56;;;;;;;88.30;41.28;;;10.10;99.90;;;;;;4995896;28;20038;-53
2021/10/09 05:26:22;;;;;;;81.53;41.63;;;10.10;99.90;;;;;;5029964;28;20033;-53
2021/10/09 05:28:49;;;;;;;89.45;41.67;;;10.10;99.90;;;;;;5033950;28;20044;-51
2021/10/09 05:31:26;;;;;;;76.63;38.00;;;10.10;99.90;;;;;;5034852;28;20033;-54
2021/10/09 05:33:53;;;;;;;90.50;42.13;;;10.10;99.90;;;;;;5017072;28;20049;-50
2021/10/09 05:36:21;;;;;;;89.63;43.95;;;10.10;99.90;;;;;;5040279;28;20073;-52
2021/10/09 05:38:47;;;;;;;93.18;44.63;;;10.10;99.90;;;;;;5039677;28;20029;-51
2021/10/09 05:41:12;;;;;;;86.32;41.75;;;10.10;99.90;;;;;;5037077;28;20037;-52
2021/10/09 05:43:38;;;;;;;106.13;45.13;;;10.10;99.90;;;;;;5029731;28;20045;-49
2021/10/09 05:46:03;;;;;;;100.40;43.58;;;10.10;99.90;;;;;;5019796;28;20497;-48
2021/10/09 05:48:30;;;;;;;100.18;43.58;;;10.00;99.90;;;;;;5030930;28;20402;-49
2021/10/09 05:51:10;;;;;;;73.90;36.85;;;10.10;99.90;;;;;;5033710;28;20041;-50
2021/10/09 05:56:15;;;;;;;90.75;42.58;;;10.00;99.90;;;;;;5027042;28;20103;-49
2021/10/09 06:01:50;;;;;;;83.28;41.13;;;10.10;99.90;;;;;;5031512;28;20045;-49
2021/10/09 07:01:08;;;;;;;81.93;39.90;;;10.10;99.90;;;;;;4982659;28;20076;-49
2021/10/09 07:03:34;;;;;;;74.35;38.05;;;10.10;99.90;;;;;;5026806;28;20474;-49
2021/10/09 07:06:00;;;;;;;76.75;39.67;;;10.10;99.90;;;;;;5023424;28;20080;-49
2021/10/09 07:08:26;;;;;;;72.22;38.38;;;10.10;99.90;;;;;;5026862;28;20449;-49
2021/10/09 07:10:53;;;;;;;77.68;39.17;;;10.10;99.90;;;;;;5032602;28;20120;-51
2021/10/09 07:13:18;;;;;;;72.63;38.08;;;10.10;99.90;;;;;;5017099;28;20049;-49
2021/10/09 07:15:44;;;;;;;74.43;37.70;;;10.20;99.90;;;;;;5028986;28;20045;-49
2021/10/09 07:18:12;;;;;;;67.70;35.33;;;10.20;99.90;;;;;;5029584;28;20048;-49
2021/10/09 07:20:40;;;;;;;73.35;36.88;;;10.20;99.90;;;;;;4996694;28;20042;-48
2021/10/09 07:23:08;;;;;;;71.55;35.30;;;10.20;99.90;;;;;;5016029;28;20418;-50
2021/10/09 07:25:34;;;;;;;67.55;34.80;;;10.20;99.90;;;;;;5031915;28;20589;-51
2021/10/09 07:28:00;;;;;;;79.90;39.15;;;10.20;99.90;;;;;;5032849;28;20529;-51
2021/10/09 07:30:27;;;;;;;82.40;38.53;;;10.20;99.90;;;;;;5023544;28;20033;-51
2021/10/09 07:32:52;;;;;;;70.15;36.40;;;10.10;99.90;;;;;;5032049;28;20182;-52
2021/10/09 07:35:18;;;;;;;77.85;39.20;;;10.10;99.90;;;;;;5024756;28;20120;-50
2021/10/09 07:37:44;;;;;;;77.13;37.45;;;10.10;99.90;;;;;;5032304;28;20485;-51
2021/10/09 07:40:11;;;;;;;74.00;37.67;;;10.10;99.90;;;;;;5032179;28;20040;-52
2021/10/09 07:42:36;;;;;;;68.90;38.17;;;10.10;99.90;;;;;;5028769;28;20121;-53
2021/10/09 07:45:03;;;;;;;74.43;37.30;;;10.10;99.90;;;;;;5026761;28;20109;-51
2021/10/09 07:47:28;;;;;;;66.40;36.90;;;10.10;99.90;;;;;;5032601;28;20033;-51
2021/10/09 07:49:54;;;;;;;64.38;34.15;;;10.20;99.90;;;;;;5032307;28;20041;-54
2021/10/09 07:52:20;;;;;;;71.40;37.50;;;10.30;99.90;;;;;;5032976;28;20057;-53
2021/10/09 07:54:45;;;;;;;68.65;36.70;;;10.20;99.90;;;;;;5031911;28;20033;-54
2021/10/09 07:57:11;;;;;;;74.53;36.30;;;10.10;99.90;;;;;;5032522;28;20049;-53
2021/10/09 07:59:37;;;;;;;61.08;28.80;;;10.10;99.90;;;;;;5029484;28;20026;-51
2021/10/09 08:02:05;;;;;;;60.15;29.02;;;10.30;99.90;;;;;;5026832;28;20402;-50
2021/10/09 08:04:31;;;;;;;68.57;36.85;;;10.30;99.90;;;;;;5028466;28;20041;-52
2021/10/09 08:06:57;;;;;;;67.13;35.92;;;10.30;99.90;;;;;;5030921;28;20112;-52
2021/10/09 08:09:25;;;;;;;73.22;35.67;;;10.20;99.90;;;;;;5032175;28;20029;-48
2021/10/09 08:11:51;;;;;;;71.93;35.92;;;10.20;99.90;;;;;;5002869;28;20068;-51
2021/10/09 08:14:17;;;;;;;70.90;36.95;;;10.20;99.90;;;;;;5031078;28;20102;-52
2021/10/09 08:16:42;;;;;;;65.07;35.20;;;10.20;99.90;;;;;;5008223;28;20549;-53
2021/10/09 08:19:09;;;;;;;71.57;36.58;;;10.20;99.90;;;;;;5031409;28;20451;-49
2021/10/09 08:21:40;;;;;;;62.03;35.35;;;10.30;99.90;;;;;;5030933;28;20057;-49
2021/10/09 08:40:10;;;;;;;62.60;34.30;;;10.50;99.90;;;;;;5023593;28;20780;-50
2021/10/09 08:42:36;;;;;;;57.47;31.23;;;10.50;99.90;;;;;;5011050;28;20041;-50
2021/10/09 08:45:02;;;;;;;55.50;33.17;;;10.50;99.90;;;;;;5031078;28;20043;-49
2021/10/09 08:47:32;;;;;;;54.55;32.25;;;10.60;99.90;;;;;;5031122;28;20156;-52
2021/10/09 08:49:58;;;;;;;51.20;30.50;;;10.60;99.90;;;;;;5016325;28;20071;-51
2021/10/09 08:52:24;;;;;;;60.05;32.45;;;10.70;99.90;;;;;;5025339;28;20037;-52
2021/10/09 08:54:50;;;;;;;52.75;32.90;;;10.60;99.90;;;;;;4999564;28;20505;-49
2021/10/09 08:57:24;;;;;;;58.80;33.08;;;10.70;99.90;;;;;;5024790;28;20513;-49
2021/10/09 09:00:04;;;;;;;58.67;32.85;;;10.60;99.90;;;;;;5028758;28;20037;-55
2021/10/09 09:02:37;;;;;;;56.72;31.65;;;10.60;99.90;;;;;;5024994;28;20502;-53
2021/10/09 09:33:40;;;;;;;53.88;30.13;;;11.80;97.60;;;;;;5009276;28;20057;-55
2021/10/09 09:41:21;;;;;;;50.97;29.83;;;11.80;98.40;;;;;;5028374;28;20045;-55
2021/10/09 09:43:49;;;;;;;52.67;29.60;;;11.80;98.70;;;;;;5030677;28;20061;-55
2021/10/09 09:46:16;;;;;;;48.35;28.50;;;11.90;99.00;;;;;;5030639;28;20068;-52
2021/10/09 09:48:44;;;;;;;48.55;27.75;;;12.00;99.10;;;;;;5030877;28;20044;-53
2021/10/09 09:51:12;;;;;;;52.17;28.90;;;12.10;97.90;;;;;;5013151;28;20056;-53
2021/10/09 09:53:40;;;;;;;49.28;28.20;;;12.20;98.40;;;;;;5030137;28;20052;-52
2021/10/09 09:56:09;;;;;;;40.78;26.88;;;12.30;96.60;;;;;;5024976;28;20049;-53
2021/10/09 09:58:53;;;;;;;47.88;27.85;;;12.40;96.50;;;;;;5014211;28;20025;-55
2021/10/09 10:01:21;;;;;;;40.42;25.55;;;12.50;96.40;;;;;;5014343;28;20034;-52
2021/10/09 10:03:50;;;;;;;41.17;25.27;;;12.50;95.60;;;;;;5029475;28;20042;-54
2021/10/09 10:06:18;;;;;;;39.58;26.30;;;12.50;96.10;;;;;;5027480;28;20034;-53
2021/10/09 10:08:45;;;;;;;43.45;25.75;;;12.60;95.30;;;;;;5012675;28;20034;-54
2021/10/09 10:11:16;;;;;;;41.30;24.65;;;12.70;94.80;;;;;;5025434;28;20105;-54
2021/10/09 10:13:43;;;;;;;42.92;25.73;;;12.80;93.80;;;;;;5027613;28;20045;-52
2021/10/09 10:16:11;;;;;;;46.70;25.98;;;12.70;93.90;;;;;;5030287;28;20141;-50
2021/10/09 10:18:46;;;;;;;40.08;23.15;;;12.80;94.50;;;;;;5034124;28;20052;-53
2021/10/09 10:21:12;;;;;;;41.65;25.05;;;13.00;92.60;;;;;;5034066;28;20047;-53
2021/10/09 10:23:43;;;;;;;34.33;23.30;;;13.00;93.10;;;;;;5034241;28;20041;-51
2021/10/09 10:26:28;;;;;;;36.83;23.83;;;13.00;93.20;;;;;;5033812;28;20065;-54
2021/10/09 10:28:54;;;;;;;36.00;24.83;;;13.10;92.90;;;;;;5034838;28;20551;-55
2021/10/09 10:31:21;;;;;;;41.28;24.75;;;13.10;92.30;;;;;;5001078;28;20044;-53
2021/10/09 10:33:58;;;;;;;38.80;23.38;;;13.10;92.40;;;;;;4981937;28;20338;-55
2021/10/09 10:36:39;;;;;;;39.70;24.35;;;13.20;92.70;;;;;;5030914;28;20041;-53
2021/10/09 10:39:07;;;;;;;42.70;24.67;;;13.20;92.80;;;;;;5031802;28;20505;-54
2021/10/09 10:47:51;;;;;;;41.08;24.33;;;13.30;92.50;;;;;;5015498;28;20048;-55
2021/10/09 10:51:00;;;;;;;41.85;25.35;;;13.40;91.90;;;;;;5023565;28;20044;-54
2021/10/09 10:54:12;;;;;;;41.75;25.73;;;13.40;92.70;;;;;;5021478;28;20029;-54
2021/10/09 10:57:02;;;;;;;43.22;25.85;;;13.40;93.00;;;;;;4976908;28;20509;-54
2021/10/09 10:59:31;;;;;;;39.85;25.10;;;13.50;92.20;;;;;;5020603;28;20392;-55
2021/10/09 11:02:11;;;;;;;37.40;24.67;;;13.50;91.40;;;;;;5032500;28;20090;-55
2021/10/09 11:04:46;;;;;;;40.63;24.35;;;13.50;91.50;;;;;;5028882;28;20037;-52
2021/10/09 11:07:13;;;;;;;41.78;25.77;;;13.50;91.60;;;;;;5032010;28;20453;-54
2021/10/09 11:09:39;;;;;;;39.60;24.23;;;13.60;91.40;;;;;;5032924;28;20052;-54
2021/10/09 11:12:19;;;;;;;42.75;24.30;;;13.60;91.10;;;;;;5030582;28;20030;-55
2021/10/09 11:14:45;;;;;;;38.42;24.00;;;13.70;91.40;;;;;;5031002;28;20048;-54
2021/10/09 11:17:11;;;;;;;40.00;24.23;;;13.80;91.20;;;;;;5015436;28;20590;-54
2021/10/09 11:19:49;;;;;;;41.47;26.73;;;13.80;91.60;;;;;;5011118;28;20303;-52
2021/10/09 11:22:20;;;;;;;37.10;25.00;;;13.80;91.10;;;;;;5014670;28;20045;-50
2021/10/09 11:24:49;;;;;;;37.17;24.67;;;13.90;90.80;;;;;;5033172;28;20034;-54
2021/10/09 11:27:17;;;;;;;43.45;26.00;;;13.90;90.30;;;;;;5023449;28;20057;-54
2021/10/09 11:30:09;;;;;;;39.88;24.45;;;13.90;90.50;;;;;;5012438;28;20068;-54
2021/10/09 11:32:38;;;;;;;43.67;25.88;;;13.90;91.10;;;;;;5016930;28;20033;-52
2021/10/09 11:35:05;;;;;;;38.65;24.25;;;14.00;90.70;;;;;;4995655;28;20029;-53
2021/10/09 11:37:32;;;;;;;37.55;24.92;;;14.00;91.50;;;;;;5019451;28;20498;-55
2021/10/09 11:40:02;;;;;;;45.95;25.25;;;14.10;91.20;;;;;;5031856;28;20041;-54
2021/10/09 11:42:30;;;;;;;38.22;23.35;;;14.20;91.10;;;;;;5023953;28;20046;-54
2021/10/09 11:56:02;;;;;;;35.03;23.63;;;14.30;89.20;;;;;;5031295;28;20049;-53
2021/10/09 11:58:29;;;;;;;33.55;21.92;;;14.30;89.40;;;;;;4994410;28;20107;-52
2021/10/09 12:00:55;;;;;;;36.33;22.80;;;14.30;90.30;;;;;;5027932;28;20077;-52
2021/10/09 12:03:35;;;;;;;37.80;22.73;;;14.40;90.00;;;;;;4997035;28;20073;-51
2021/10/09 12:06:09;;;;;;;42.20;24.38;;;14.50;89.30;;;;;;5031959;28;20040;-51
2021/10/09 12:08:50;;;;;;;39.47;25.02;;;14.60;89.40;;;;;;5028884;28;20041;-53
2021/10/09 12:11:29;;;;;;;39.17;24.60;;;14.60;88.80;;;;;;5004325;28;20297;-52
2021/10/09 12:13:58;;;;;;;39.78;22.75;;;14.60;86.20;;;;;;5030505;28;20073;-52
2021/10/09 12:16:36;;;;;;;39.78;23.25;;;14.70;87.30;;;;;;5026793;28;20041;-54
2021/10/09 12:19:04;;;;;;;36.30;22.00;;;14.60;86.30;;;;;;5031236;28;20043;-52
2021/10/09 12:21:33;;;;;;;33.15;22.60;;;14.70;84.60;;;;;;5031895;28;20444;-53
2021/10/09 12:24:12;;;;;;;31.42;21.27;;;14.70;84.80;;;;;;5024748;28;20049;-52
2021/10/09 12:26:38;;;;;;;35.88;22.13;;;14.70;84.00;;;;;;5031285;28;20041;-54
2021/10/09 12:29:13;;;;;;;39.78;21.20;;;14.60;85.60;;;;;;5029828;28;20037;-54
2021/10/09 12:31:46;;;;;;;35.35;21.88;;;14.70;85.50;;;;;;5018931;28;20038;-54
2021/10/09 12:34:27;;;;;;;36.75;21.85;;;14.70;85.60;;;;;;5005731;28;20391;-52
2021/10/09 12:37:07;;;;;;;37.42;21.67;;;14.70;85.80;;;;;;5026002;28;20063;-54
2021/10/09 12:39:33;;;;;;;34.15;20.55;;;14.80;85.50;;;;;;4990784;28;20038;-53
2021/10/09 12:41:59;;;;;;;32.65;20.50;;;14.80;84.30;;;;;;5003940;28;20067;-52
2021/10/09 12:44:25;;;;;;;37.78;20.95;;;14.90;82.30;;;;;;5025698;23;20087;-51
2021/10/09 12:46:50;;;;;;;35.80;20.65;;;14.80;83.00;;;;;;5043974;28;20052;-51
2021/10/09 12:49:16;;;;;;;36.92;21.58;;;14.90;83.70;;;;;;5055375;28;20524;-51
2021/10/09 12:51:42;;;;;;;35.53;20.77;;;14.90;83.40;;;;;;5051106;28;20080;-51
2021/10/09 12:54:08;;;;;;;35.85;21.75;;;15.00;82.90;;;;;;5051234;28;20036;-51
2021/10/09 12:56:35;;;;;;;39.88;21.02;;;15.00;80.60;;;;;;5051331;28;20104;-52
2021/10/09 12:59:01;;;;;;;37.13;21.48;;;15.00;82.80;;;;;;5050492;28;20403;-51
2021/10/09 13:01:28;;;;;;;35.58;22.70;;;15.00;84.60;;;;;;5050945;28;20037;-51
2021/10/09 13:03:53;;;;;;;36.13;21.92;;;15.00;85.60;;;;;;5050928;28;20045;-51
2021/10/09 13:06:19;;;;;;;31.45;21.25;;;15.00;85.60;;;;;;5051078;28;20390;-51
2021/10/09 13:08:44;;;;;;;35.08;22.13;;;15.10;84.40;;;;;;5051071;28;20081;-51
2021/10/09 13:11:10;;;;;;;35.90;22.58;;;15.10;83.60;;;;;;5050947;28;20079;-51
2021/10/09 13:13:36;;;;;;;34.42;21.77;;;15.10;84.40;;;;;;5050020;28;20405;-52
2021/10/09 13:16:02;;;;;;;35.42;20.58;;;15.00;85.40;;;;;;5043797;28;20036;-51
2021/10/09 13:18:27;;;;;;;36.22;22.08;;;15.00;85.50;;;;;;5051019;28;20484;-49
2021/10/09 13:20:53;;;;;;;35.88;21.40;;;15.10;85.00;;;;;;5051163;28;20045;-50
2021/10/09 13:23:18;;;;;;;35.92;22.40;;;15.10;84.10;;;;;;5050369;28;20412;-51
2021/10/09 13:25:44;;;;;;;38.00;22.88;;;15.20;83.40;;;;;;5050807;28;20492;-51
2021/10/09 13:28:10;;;;;;;33.78;21.90;;;15.20;83.00;;;;;;5050100;28;20043;-51
2021/10/09 13:30:35;;;;;;;33.28;22.02;;;15.30;80.90;;;;;;5048610;28;20390;-51
2021/10/09 13:33:01;;;;;;;30.35;21.90;;;15.20;81.40;;;;;;5050342;28;20041;-50
2021/10/09 13:35:27;;;;;;;35.22;21.38;;;15.20;82.10;;;;;;5050237;28;20444;-51
2021/10/09 13:37:57;;;;;;;35.22;22.42;;;15.20;82.50;;;;;;5047787;28;20044;-55
2021/10/09 13:40:22;;;;;;;35.08;21.77;;;15.20;82.80;;;;;;5041144;28;20041;-54
2021/10/09 13:42:48;;;;;;;34.83;21.35;;;15.20;84.00;;;;;;5043891;28;20033;-52
2021/10/09 13:45:14;;;;;;;36.80;21.45;;;15.20;84.50;;;;;;5045160;28;20120;-54
2021/10/09 13:47:40;;;;;;;35.50;22.35;;;15.30;82.10;;;;;;5050368;28;20037;-51
2021/10/09 13:50:06;;;;;;;34.50;22.02;;;15.20;83.60;;;;;;5048836;28;20037;-51
2021/10/09 13:52:32;;;;;;;31.65;20.38;;;15.20;83.30;;;;;;5049890;28;20037;-51
2021/10/09 13:54:57;;;;;;;36.85;21.08;;;15.30;81.80;;;;;;5054593;28;20484;-51
2021/10/09 13:57:23;;;;;;;36.30;20.77;;;15.30;81.60;;;;;;5054211;28;20060;-51
2021/10/09 13:59:48;;;;;;;37.50;20.85;;;15.30;81.30;;;;;;5047837;28;20447;-51
2021/10/09 14:02:14;;;;;;;33.92;19.98;;;15.30;82.30;;;;;;5054199;28;20033;-51
2021/10/09 14:04:40;;;;;;;33.72;20.95;;;15.30;83.40;;;;;;5054240;28;20475;-51
2021/10/09 14:07:06;;;;;;;32.92;20.73;;;15.30;83.20;;;;;;5053941;28;20029;-51
2021/10/09 14:09:32;;;;;;;31.73;20.27;;;15.40;81.20;;;;;;5048539;28;20036;-51
2021/10/09 14:11:58;;;;;;;28.85;19.52;;;15.30;80.60;;;;;;5053955;28;20062;-51
2021/10/09 14:14:25;;;;;;;33.45;19.98;;;15.30;81.50;;;;;;5053926;28;20404;-51
2021/10/09 14:16:55;;;;;;;30.88;19.85;;;15.40;79.50;;;;;;5053914;28;20423;-51
2021/10/09 14:19:21;;;;;;;27.63;20.15;;;15.40;79.80;;;;;;5054117;28;20094;-51
2021/10/09 14:21:46;;;;;;;32.13;19.33;;;15.30;80.60;;;;;;5046297;28;20468;-51
2021/10/09 14:24:12;;;;;;;28.77;20.42;;;15.30;80.10;;;;;;5048170;28;20122;-51
2021/10/09 14:26:37;;;;;;;31.85;21.05;;;15.30;79.70;;;;;;5054506;28;20399;-53
2021/10/09 14:29:03;;;;;;;31.38;20.73;;;15.30;80.70;;;;;;5054432;28;20587;-54
2021/10/09 14:31:29;;;;;;;33.75;20.52;;;15.30;81.50;;;;;;5052381;28;20469;-51
2021/10/09 14:33:55;;;;;;;35.20;21.13;;;15.40;80.50;;;;;;5052425;28;20114;-53
2021/10/09 14:36:20;;;;;;;31.95;21.75;;;15.30;81.50;;;;;;5053665;28;20488;-51
2021/10/09 14:38:46;;;;;;;34.58;20.77;;;15.30;82.30;;;;;;5052942;28;20044;-51
2021/10/09 14:41:14;;;;;;;32.08;21.33;;;15.30;81.90;;;;;;5053447;28;20036;-53
2021/10/09 14:43:41;;;;;;;37.63;21.63;;;15.30;82.80;;;;;;5053085;28;20524;-51
2021/10/09 14:48:52;;;;;;;30.55;19.95;;;15.30;81.40;;;;;;5058117;28;20041;-51
2021/10/09 14:53:59;;;;;;;33.67;20.92;;;15.30;81.30;;;;;;5052994;28;20041;-51
2021/10/09 15:20:30;;;;;;;33.10;21.65;;;15.20;84.50;;;;;;5039910;28;20042;-51
2021/10/09 15:22:56;;;;;;;32.00;21.17;;;15.30;83.00;;;;;;5045656;28;20413;-53
2021/10/09 15:25:24;;;;;;;33.53;21.58;;;15.20;84.20;;;;;;5048731;28;20052;-52
2021/10/09 15:27:50;;;;;;;35.88;22.30;;;15.20;84.90;;;;;;5044622;28;20080;-51